Time;durP1;ratioP1;P1;durP2;ratioP2;P2;SDS_P1;SDS_P2;PMS_P1;PMS_P2;Temp;Humidity;BMP_temperature;BMP_pressure;BME280_temperature;BME280_humidity;BME280_pressure;Samples;Min_cycle;Max_cycle;Signal;HPM_P1;HPM_P2
2022/02/23 00:00:16;;;;;;;8.00;5.80;;;;;;;8.17;96.70;99760.81;5142570;27;20094;-76
2022/02/23 00:02:41;;;;;;;6.07;4.80;;;;;;;8.12;95.90;99760.44;5126972;27;20686;-76
2022/02/23 00:05:07;;;;;;;5.70;4.80;;;;;;;7.98;95.89;99766.19;5133169;27;20035;-75
2022/02/23 00:07:32;;;;;;;5.85;4.43;;;;;;;7.82;96.69;99742.25;5142757;27;20311;-76
2022/02/23 00:09:58;;;;;;;6.32;4.88;;;;;;;7.99;97.33;99771.31;5137206;27;20036;-76
2022/02/23 00:12:23;;;;;;;7.10;5.53;;;;;;;8.05;96.47;99771.69;5128610;27;20027;-76
2022/02/23 00:14:49;;;;;;;6.68;5.13;;;;;;;8.01;96.48;99769.34;5130108;27;20348;-76
2022/02/23 00:17:14;;;;;;;6.45;5.10;;;;;;;7.89;96.98;99764.41;5126455;27;20363;-76
2022/02/23 00:19:40;;;;;;;6.30;5.10;;;;;;;8.00;96.33;99749.25;5128233;27;20023;-76
2022/02/23 00:22:05;;;;;;;8.80;5.13;;;;;;;7.97;96.53;99759.25;5121855;28;20038;-76
2022/02/23 00:24:31;;;;;;;7.25;5.25;;;;;;;7.87;96.38;99758.44;5122263;27;20031;-76
2022/02/23 00:26:56;;;;;;;5.63;5.03;;;;;;;8.06;96.34;99755.72;5132082;27;20034;-76
2022/02/23 00:29:22;;;;;;;7.43;5.45;;;;;;;8.01;94.99;99745.63;5128243;27;20080;-76
2022/02/23 00:31:47;;;;;;;6.40;4.88;;;;;;;8.09;94.50;99768.63;5125136;27;20031;-76
2022/02/23 00:34:13;;;;;;;9.38;4.95;;;;;;;7.96;95.11;99768.13;5125801;28;20080;-76
2022/02/23 00:36:39;;;;;;;7.05;5.63;;;;;;;7.83;95.38;99741.25;5148832;27;20360;-76
2022/02/23 00:39:04;;;;;;;7.47;5.22;;;;;;;8.03;95.60;99766.56;5127390;27;20103;-77
2022/02/23 00:41:30;;;;;;;6.13;4.72;;;;;;;7.97;94.45;99759.25;5125567;27;20043;-77
2022/02/23 00:43:56;;;;;;;6.70;5.13;;;;;;;8.22;93.61;99758.56;5127874;27;20085;-76
2022/02/23 00:46:21;;;;;;;8.50;5.15;;;;;;;8.13;93.47;99762.09;5128765;27;20015;-76
2022/02/23 00:48:47;;;;;;;7.20;4.90;;;;;;;8.24;93.57;99763.69;5130699;27;20313;-76
2022/02/23 00:51:12;;;;;;;6.07;5.15;;;;;;;7.95;93.48;99725.13;5137404;27;20031;-76
2022/02/23 00:53:38;;;;;;;6.55;4.70;;;;;;;8.13;93.85;99756.81;5141904;27;20037;-76
2022/02/23 00:56:04;;;;;;;9.02;5.55;;;;;;;8.21;93.25;99766.63;5129505;28;20028;-76
2022/02/23 00:58:29;;;;;;;8.02;5.00;;;;;;;8.16;92.79;99771.50;5129377;28;20363;-76
2022/02/23 01:00:55;;;;;;;7.65;5.90;;;;;;;8.21;93.31;99764.00;5133594;27;20355;-76
2022/02/23 01:03:20;;;;;;;10.00;5.72;;;;;;;8.14;92.84;99750.56;5134115;27;20283;-76
2022/02/23 01:05:46;;;;;;;9.18;5.80;;;;;;;8.21;92.87;99762.19;5134082;27;20356;-76
2022/02/23 01:08:11;;;;;;;7.38;5.53;;;;;;;8.06;92.73;99757.53;5131651;27;20098;-76
2022/02/23 01:10:37;;;;;;;8.57;6.22;;;;;;;8.12;93.18;99764.88;5134249;27;20031;-76
2022/02/23 01:13:03;;;;;;;7.55;5.47;;;;;;;8.19;92.02;99769.41;5129936;27;20109;-76
2022/02/23 01:15:29;;;;;;;8.30;6.43;;;;;;;8.04;93.30;99765.59;5133045;27;20183;-76
2022/02/23 01:17:54;;;;;;;9.18;6.47;;;;;;;8.12;92.75;99772.78;5128587;27;20015;-77
2022/02/23 01:20:20;;;;;;;11.43;6.38;;;;;;;8.16;91.97;99771.50;5125496;28;20099;-76
2022/02/23 01:22:46;;;;;;;10.32;6.63;;;;;;;8.03;92.12;99763.94;5133986;27;20030;-76
2022/02/23 01:25:11;;;;;;;9.32;6.28;;;;;;;7.99;92.82;99768.66;5142869;27;20047;-76
2022/02/23 01:27:37;;;;;;;9.05;6.28;;;;;;;8.03;92.25;99766.56;5147628;27;20088;-76
2022/02/23 01:30:04;;;;;;;8.15;5.60;;;;;;;8.06;92.91;99779.47;5125146;28;20293;-76
2022/02/23 01:32:30;;;;;;;9.23;6.13;;;;;;;8.16;91.82;99777.63;5124564;27;20068;-76
2022/02/23 01:34:55;;;;;;;11.23;6.68;;;;;;;8.24;91.12;99782.16;5126969;27;20098;-76
2022/02/23 01:37:21;;;;;;;8.85;6.07;;;;;;;8.20;90.87;99771.06;5123962;28;20027;-76
2022/02/23 01:39:46;;;;;;;10.13;6.32;;;;;;;8.45;90.12;99782.81;5128622;27;20098;-76
2022/02/23 01:42:12;;;;;;;9.68;6.10;;;;;;;8.29;89.59;99772.00;5132721;27;20123;-76
2022/02/23 01:44:38;;;;;;;7.32;5.57;;;;;;;8.14;90.69;99766.38;5128816;27;20039;-76
2022/02/23 01:47:04;;;;;;;7.70;5.53;;;;;;;8.30;90.16;99786.84;5130280;27;20078;-76
2022/02/23 01:49:29;;;;;;;7.57;4.85;;;;;;;8.44;89.53;99783.78;5134499;27;20050;-76
2022/02/23 01:51:55;;;;;;;7.88;5.85;;;;;;;8.50;88.65;99779.72;5128775;27;20028;-76
2022/02/23 01:54:20;;;;;;;7.72;5.18;;;;;;;8.31;89.76;99786.72;5126626;27;20047;-76
2022/02/23 01:56:46;;;;;;;7.63;5.85;;;;;;;8.23;89.35;99783.97;5133694;27;20056;-76
2022/02/23 01:59:12;;;;;;;6.68;4.95;;;;;;;8.51;88.36;99779.59;5134059;27;20043;-76
2022/02/23 02:01:38;;;;;;;6.70;5.07;;;;;;;8.36;89.41;99782.88;5132753;27;20031;-76
2022/02/23 02:04:03;;;;;;;10.13;5.25;;;;;;;8.29;88.77;99769.38;5128231;27;20036;-76
2022/02/23 02:06:29;;;;;;;6.72;5.30;;;;;;;8.55;88.19;99785.41;5131371;27;20370;-76
2022/02/23 02:08:54;;;;;;;7.45;5.45;;;;;;;8.29;88.27;99785.19;5130619;27;20031;-76
2022/02/23 02:11:20;;;;;;;6.95;5.43;;;;;;;8.27;88.35;99782.69;5129586;27;20054;-76
2022/02/23 02:13:45;;;;;;;8.02;5.25;;;;;;;8.38;88.99;99788.81;5123636;27;20133;-76
2022/02/23 02:16:11;;;;;;;6.10;4.93;;;;;;;8.40;87.66;99790.34;5124061;28;20337;-76
2022/02/23 02:18:36;;;;;;;7.95;5.20;;;;;;;8.32;88.37;99796.31;5126034;27;20046;-76
2022/02/23 02:21:02;;;;;;;8.23;4.63;;;;;;;8.36;88.71;99788.13;5129092;27;20379;-76
2022/02/23 02:23:27;;;;;;;6.82;5.22;;;;;;;8.29;88.27;99791.31;5125107;27;20077;-76
2022/02/23 02:25:53;;;;;;;7.50;5.05;;;;;;;8.34;88.01;99803.28;5122576;28;20040;-76
2022/02/23 02:28:18;;;;;;;8.93;5.28;;;;;;;8.40;88.38;99811.44;5132163;27;20321;-76
2022/02/23 02:30:45;;;;;;;7.25;5.55;;;;;;;8.50;87.13;99820.16;5145144;27;20218;-76
2022/02/23 02:33:11;;;;;;;8.45;5.35;;;;;;;8.28;87.96;99800.19;5136258;27;20109;-76
2022/02/23 02:35:38;;;;;;;6.85;5.13;;;;;;;8.39;88.12;99809.78;5130322;27;20030;-76
2022/02/23 02:38:05;;;;;;;7.70;4.97;;;;;;;8.40;87.29;99819.38;5133434;27;20110;-76
2022/02/23 02:40:32;;;;;;;7.40;5.40;;;;;;;8.43;87.91;99820.88;5130609;27;20046;-76
2022/02/23 02:42:58;;;;;;;7.15;5.10;;;;;;;8.25;87.12;99805.75;5128599;27;20071;-76
2022/02/23 02:45:24;;;;;;;6.70;5.10;;;;;;;8.34;88.03;99832.31;5130067;27;20027;-77
2022/02/23 02:47:50;;;;;;;6.72;4.95;;;;;;;8.30;88.70;99834.34;5125398;27;20293;-76
2022/02/23 02:50:16;;;;;;;6.85;4.65;;;;;;;8.30;87.81;99824.63;5131870;27;20027;-76
2022/02/23 02:52:41;;;;;;;6.05;4.97;;;;;;;8.34;88.44;99837.59;5129876;27;20065;-76
2022/02/23 02:55:07;;;;;;;7.75;5.32;;;;;;;8.34;87.53;99840.22;5126220;27;20336;-77
2022/02/23 02:57:33;;;;;;;6.97;5.03;;;;;;;8.47;88.12;99846.00;5128907;27;20092;-76
2022/02/23 02:59:58;;;;;;;7.50;5.25;;;;;;;8.49;87.26;99849.31;5127638;27;20325;-76
2022/02/23 03:02:24;;;;;;;8.50;5.38;;;;;;;8.33;87.87;99842.03;5134434;27;20254;-76
2022/02/23 03:04:49;;;;;;;7.32;5.13;;;;;;;8.49;87.72;99851.97;5126360;27;20049;-76
2022/02/23 03:07:15;;;;;;;7.53;5.28;;;;;;;8.48;87.41;99851.13;5134869;27;20061;-76
2022/02/23 03:09:41;;;;;;;6.22;5.07;;;;;;;8.62;87.32;99857.72;5131839;27;20206;-76
2022/02/23 03:12:07;;;;;;;7.68;4.93;;;;;;;8.58;86.90;99856.38;5122376;28;20023;-76
2022/02/23 03:14:32;;;;;;;5.68;4.18;;;;;;;8.37;86.97;99842.56;5125391;27;20038;-76
2022/02/23 03:16:58;;;;;;;6.78;4.68;;;;;;;8.50;87.46;99867.66;5125999;27;20035;-76
2022/02/23 03:19:23;;;;;;;7.18;4.68;;;;;;;8.62;86.07;99866.47;5133719;27;20031;-76
2022/02/23 03:21:48;;;;;;;7.18;4.80;;;;;;;8.54;86.57;99871.66;5125437;27;20344;-77
2022/02/23 03:24:14;;;;;;;6.68;4.40;;;;;;;8.79;85.50;99877.22;5122254;28;20037;-76
2022/02/23 03:26:39;;;;;;;6.32;5.25;;;;;;;8.52;86.54;99878.06;5124178;27;20061;-77
2022/02/23 03:29:05;;;;;;;5.97;4.40;;;;;;;8.55;86.74;99885.69;5128528;27;20094;-76
2022/02/23 03:31:31;;;;;;;11.02;4.38;;;;;;;8.51;87.35;99894.88;5123908;27;20020;-76
2022/02/23 03:33:56;;;;;;;8.73;4.93;;;;;;;8.50;87.34;99886.13;5129276;27;20076;-76
2022/02/23 03:36:22;;;;;;;7.00;5.10;;;;;;;8.43;87.58;99890.31;5132882;27;20031;-76
2022/02/23 03:38:47;;;;;;;8.27;4.88;;;;;;;8.50;87.30;99901.97;5137445;27;20019;-76
2022/02/23 03:41:13;;;;;;;10.27;5.53;;;;;;;8.50;86.93;99906.41;5143189;27;20081;-76
2022/02/23 03:43:39;;;;;;;7.22;4.95;;;;;;;8.40;87.87;99902.97;5130454;27;20035;-76
2022/02/23 03:46:06;;;;;;;8.05;5.10;;;;;;;8.48;87.80;99911.81;5129224;27;20047;-76
2022/02/23 03:48:31;;;;;;;6.07;4.95;;;;;;;8.36;87.74;99915.63;5132358;27;20077;-77
2022/02/23 03:50:57;;;;;;;7.65;5.47;;;;;;;8.37;88.07;99917.28;5142789;27;20027;-77
2022/02/23 03:53:22;;;;;;;7.40;5.43;;;;;;;8.58;87.32;99927.63;5137327;27;20023;-77
2022/02/23 03:55:48;;;;;;;7.60;5.20;;;;;;;8.47;87.78;99911.97;5128625;27;20050;-77
2022/02/23 03:58:13;;;;;;;7.03;5.00;;;;;;;8.74;85.43;99919.91;5127888;27;20054;-76
2022/02/23 04:00:39;;;;;;;7.80;5.60;;;;;;;8.54;86.38;99926.25;5129132;27;20312;-76
2022/02/23 04:03:05;;;;;;;7.03;5.20;;;;;;;8.60;86.31;99926.50;5128332;27;20029;-76
2022/02/23 04:05:31;;;;;;;6.60;5.05;;;;;;;8.55;86.48;99930.56;5132346;27;20320;-76
2022/02/23 04:07:57;;;;;;;6.93;4.97;;;;;;;8.77;85.48;99932.00;5123485;27;20034;-76
2022/02/23 04:10:23;;;;;;;9.25;5.20;;;;;;;8.87;84.65;99923.03;5131901;27;20035;-76
2022/02/23 04:12:49;;;;;;;6.93;5.15;;;;;;;8.88;84.56;99932.63;5129716;27;20282;-76
2022/02/23 04:15:15;;;;;;;7.15;5.25;;;;;;;8.83;84.63;99942.81;5142466;27;20050;-76
2022/02/23 04:17:41;;;;;;;11.77;5.95;;;;;;;8.96;83.58;99943.28;5138821;27;20023;-77
2022/02/23 04:20:07;;;;;;;8.63;5.97;;;;;;;8.96;83.43;99937.19;5133802;27;20068;-77
2022/02/23 04:22:34;;;;;;;11.05;5.97;;;;;;;8.99;83.79;99943.97;5133683;27;20035;-77
2022/02/23 04:24:59;;;;;;;7.50;5.15;;;;;;;8.82;84.48;99945.59;5127164;27;20035;-76
2022/02/23 04:27:25;;;;;;;8.18;5.30;;;;;;;8.86;83.80;99939.88;5129622;27;20317;-76
2022/02/23 04:29:51;;;;;;;8.25;5.80;;;;;;;8.87;83.48;99935.41;5128281;27;20046;-76
2022/02/23 04:32:17;;;;;;;8.23;5.90;;;;;;;8.61;84.63;99944.00;5125704;27;20256;-76
2022/02/23 04:34:42;;;;;;;7.13;5.70;;;;;;;8.68;84.81;99938.97;5133503;27;20043;-76
2022/02/23 04:37:07;;;;;;;11.82;6.82;;;;;;;8.47;85.05;99927.81;5139999;27;20214;-76
2022/02/23 04:39:33;;;;;;;11.38;7.22;;;;;;;8.29;86.19;99936.41;5129207;27;20083;-76
2022/02/23 04:41:58;;;;;;;12.20;7.30;;;;;;;8.18;86.83;99944.47;5127660;27;20039;-76
2022/02/23 04:44:24;;;;;;;11.48;8.18;;;;;;;8.07;86.89;99944.63;5126231;28;20023;-76
2022/02/23 04:46:50;;;;;;;11.18;7.28;;;;;;;8.08;86.53;99921.72;5128635;27;20362;-77
2022/02/23 04:49:15;;;;;;;10.00;7.07;;;;;;;8.32;86.77;99956.38;5133283;27;20026;-77
2022/02/23 04:51:40;;;;;;;13.32;8.88;;;;;;;8.47;85.90;99959.47;5127854;28;20051;-76
2022/02/23 04:54:06;;;;;;;13.55;8.57;;;;;;;8.49;85.99;99962.81;5124903;27;20202;-76
2022/02/23 04:56:31;;;;;;;13.43;9.23;;;;;;;8.53;85.75;99957.09;5130681;27;20124;-76
2022/02/23 04:58:57;;;;;;;16.25;8.90;;;;;;;8.57;85.60;99965.56;5129040;27;20039;-76
2022/02/23 05:01:22;;;;;;;10.95;7.15;;;;;;;8.56;85.11;99951.53;5127423;28;20029;-76
2022/02/23 05:03:48;;;;;;;9.95;6.75;;;;;;;8.30;85.71;99939.88;5123889;28;20032;-76
2022/02/23 05:06:14;;;;;;;10.68;7.13;;;;;;;8.57;85.38;99960.28;5121286;28;20264;-77
2022/02/23 05:08:39;;;;;;;12.13;7.32;;;;;;;8.64;85.26;99961.34;5121113;28;20070;-76
2022/02/23 05:11:05;;;;;;;9.25;6.68;;;;;;;8.61;85.08;99959.00;5128853;28;20027;-77
2022/02/23 05:13:31;;;;;;;9.63;6.63;;;;;;;8.25;85.64;99910.44;5139220;27;20023;-77
2022/02/23 05:16:02;;;;;;;12.40;7.55;;;;;;;8.77;84.62;99975.06;5141718;27;20030;-76
2022/02/23 05:18:29;;;;;;;10.10;7.32;;;;;;;8.70;85.31;99978.44;5132836;27;20082;-76
2022/02/23 05:20:59;;;;;;;11.80;7.50;;;;;;;8.88;84.50;99985.44;5124066;28;20370;-76
2022/02/23 05:23:26;;;;;;;10.15;6.90;;;;;;;8.81;84.71;99992.28;5125188;28;20247;-76
2022/02/23 05:25:51;;;;;;;12.18;7.90;;;;;;;8.99;83.17;99992.34;5126512;28;20031;-76
2022/02/23 05:28:18;;;;;;;12.27;8.85;;;;;;;8.97;83.91;99999.59;5123641;28;20050;-76
2022/02/23 05:30:43;;;;;;;12.73;8.98;;;;;;;9.04;83.01;100003.31;5134593;28;20090;-77
2022/02/23 05:33:09;;;;;;;15.07;8.93;;;;;;;9.05;82.97;100010.25;5122945;28;20047;-76
2022/02/23 05:35:35;;;;;;;13.05;8.02;;;;;;;8.87;82.94;99999.63;5122599;28;20039;-76
2022/02/23 05:38:00;;;;;;;17.05;9.15;;;;;;;8.87;83.21;100004.91;5122744;28;20039;-76
2022/02/23 05:40:26;;;;;;;16.95;8.30;;;;;;;8.92;83.43;100015.03;5122694;28;20038;-76
2022/02/23 05:42:53;;;;;;;14.88;8.98;;;;;;;9.01;83.37;100023.91;5123026;28;20237;-76
2022/02/23 05:45:19;;;;;;;12.35;8.48;;;;;;;9.09;83.00;100024.84;5123021;28;20216;-76
2022/02/23 05:47:44;;;;;;;20.77;9.05;;;;;;;9.04;82.53;100032.38;5125166;27;20024;-76
2022/02/23 05:50:10;;;;;;;15.15;8.93;;;;;;;8.99;83.27;100024.03;5126454;27;20389;-76
2022/02/23 05:52:36;;;;;;;17.40;9.68;;;;;;;9.08;82.05;100024.97;5125351;27;20027;-76
2022/02/23 05:55:04;;;;;;;16.90;10.65;;;;;;;9.01;81.92;100024.72;5125041;27;20031;-76
2022/02/23 05:57:30;;;;;;;17.05;11.55;;;;;;;8.84;83.47;100033.41;5126414;27;20032;-76
2022/02/23 05:59:55;;;;;;;17.63;11.27;;;;;;;8.99;83.47;100036.41;5124933;27;20027;-76
2022/02/23 06:02:21;;;;;;;16.92;11.07;;;;;;;8.99;83.02;100024.03;5126544;28;20197;-76
2022/02/23 06:04:46;;;;;;;14.27;10.30;;;;;;;9.11;82.57;100043.19;5126163;28;20036;-77
2022/02/23 06:07:12;;;;;;;12.68;8.63;;;;;;;8.91;82.67;100037.13;5125112;27;20359;-76
2022/02/23 06:09:37;;;;;;;14.15;8.32;;;;;;;9.09;82.17;100040.69;5126224;27;20236;-77
2022/02/23 06:12:03;;;;;;;21.08;12.05;;;;;;;9.09;82.58;100042.50;5126266;28;20205;-77
2022/02/23 06:14:30;;;;;;;33.00;15.95;;;;;;;9.07;82.98;100050.56;5126174;27;20213;-76
2022/02/23 06:16:55;;;;;;;36.95;17.65;;;;;;;9.25;80.27;100037.41;5124841;27;20094;-76
2022/02/23 06:19:21;;;;;;;37.92;18.90;;;;;;;9.07;82.28;100053.22;5125912;27;20407;-76
2022/02/23 06:21:46;;;;;;;26.73;14.85;;;;;;;9.05;81.90;100059.59;5125017;27;20177;-76
2022/02/23 06:24:12;;;;;;;24.02;12.88;;;;;;;9.04;82.26;100053.50;5127855;27;20040;-76
2022/02/23 06:26:37;;;;;;;19.80;11.35;;;;;;;9.25;81.27;100064.66;5144364;27;20102;-76
2022/02/23 06:29:03;;;;;;;22.67;12.95;;;;;;;9.11;81.29;100069.59;5142493;27;20043;-76
2022/02/23 06:31:28;;;;;;;20.85;12.15;;;;;;;9.24;80.53;100076.22;5128013;27;20108;-76
2022/02/23 06:33:54;;;;;;;24.15;12.13;;;;;;;9.31;81.62;100075.63;5130274;27;20032;-77
2022/02/23 06:36:19;;;;;;;17.60;10.43;;;;;;;9.27;80.95;100080.38;5141828;27;20023;-77
2022/02/23 06:38:45;;;;;;;25.52;11.23;;;;;;;9.10;81.75;100079.34;5144485;27;20027;-76
2022/02/23 06:41:16;;;;;;;22.17;12.77;;;;;;;9.10;81.29;100081.13;5136284;27;20031;-77
2022/02/23 06:43:47;;;;;;;18.83;10.57;;;;;;;9.13;81.49;100092.25;5131603;27;20019;-77
2022/02/23 06:46:14;;;;;;;13.95;9.38;;;;;;;9.09;81.79;100098.81;5142025;27;20221;-77
2022/02/23 06:48:40;;;;;;;18.05;9.85;;;;;;;9.22;81.28;100091.38;5129087;27;20385;-76
2022/02/23 06:51:07;;;;;;;30.92;12.07;;;;;;;9.06;81.81;100114.09;5132484;27;20213;-76
2022/02/23 06:53:33;;;;;;;14.07;9.55;;;;;;;8.99;81.61;100105.09;5130684;27;20235;-76
2022/02/23 06:55:59;;;;;;;21.33;12.23;;;;;;;8.90;82.54;100099.69;5125813;27;20077;-76
2022/02/23 06:58:24;;;;;;;18.48;11.10;;;;;;;9.09;81.70;100112.00;5126177;27;20027;-76
2022/02/23 07:00:50;;;;;;;18.75;12.00;;;;;;;8.98;82.00;100120.09;5142303;27;20035;-76
2022/02/23 07:03:16;;;;;;;21.38;11.68;;;;;;;8.80;81.60;100098.88;5130062;27;20058;-77
2022/02/23 07:05:42;;;;;;;17.73;11.18;;;;;;;9.10;81.54;100124.25;5130478;27;20243;-77
2022/02/23 07:08:09;;;;;;;20.25;12.77;;;;;;;9.02;82.45;100129.41;5128163;27;20558;-77
2022/02/23 07:10:35;;;;;;;21.60;12.38;;;;;;;9.07;82.20;100140.38;5131380;27;20019;-76
2022/02/23 07:13:06;;;;;;;28.00;13.75;;;;;;;9.17;81.08;100129.78;5128679;27;20333;-76
2022/02/23 07:15:35;;;;;;;19.00;11.60;;;;;;;9.16;80.63;100144.81;5127700;27;20051;-77
2022/02/23 07:18:01;;;;;;;20.70;12.05;;;;;;;9.09;81.77;100129.66;5124037;27;20344;-76
2022/02/23 07:20:27;;;;;;;25.70;14.55;;;;;;;9.19;81.65;100141.03;5121968;28;20042;-76
2022/02/23 07:22:53;;;;;;;24.60;13.52;;;;;;;8.94;82.35;100124.00;5131466;27;20325;-76
2022/02/23 07:25:20;;;;;;;22.63;13.50;;;;;;;9.11;83.00;100154.13;5132048;27;20180;-76
2022/02/23 07:27:46;;;;;;;21.02;12.82;;;;;;;9.12;83.44;100151.34;5131143;27;20309;-77
2022/02/23 07:30:14;;;;;;;21.85;12.15;;;;;;;9.21;82.81;100144.38;5129864;27;20160;-76
2022/02/23 07:32:39;;;;;;;20.85;12.95;;;;;;;9.10;82.18;100140.09;5127709;27;20047;-76
2022/02/23 07:35:10;;;;;;;20.50;12.65;;;;;;;9.17;82.16;100154.41;5130044;27;20043;-76
2022/02/23 07:37:38;;;;;;;25.98;14.40;;;;;;;9.12;83.03;100166.38;5130742;27;20035;-77
2022/02/23 07:40:10;;;;;;;29.50;15.10;;;;;;;9.14;84.30;100165.25;5130000;27;20027;-76
2022/02/23 07:42:35;;;;;;;24.55;13.98;;;;;;;9.21;83.82;100162.88;5127862;27;20031;-77
2022/02/23 07:45:02;;;;;;;26.95;15.35;;;;;;;9.36;83.47;100173.81;5143447;27;20039;-76
2022/02/23 07:47:27;;;;;;;29.60;16.05;;;;;;;9.22;84.92;100177.75;5140685;27;20332;-76
2022/02/23 07:49:52;;;;;;;28.25;15.43;;;;;;;9.22;84.37;100175.94;5144518;27;20106;-76
2022/02/23 07:52:19;;;;;;;33.55;17.67;;;;;;;9.15;85.43;100180.13;5136805;27;20131;-77
2022/02/23 07:54:45;;;;;;;25.50;14.55;;;;;;;9.04;85.86;100180.28;5132711;27;20027;-77
2022/02/23 07:57:11;;;;;;;24.40;15.35;;;;;;;9.00;86.15;100178.91;5136362;27;20268;-76
2022/02/23 07:59:36;;;;;;;24.30;15.25;;;;;;;9.16;86.79;100180.97;5135573;27;20264;-75
2022/02/23 08:02:02;;;;;;;25.17;14.43;;;;;;;9.40;84.96;100183.16;5137229;27;20039;-76
2022/02/23 08:04:28;;;;;;;22.55;14.20;;;;;;;9.48;85.69;100175.34;5138051;27;20043;-76
2022/02/23 08:06:55;;;;;;;27.25;16.02;;;;;;;9.23;86.55;100174.13;5134521;27;20023;-76
2022/02/23 08:09:20;;;;;;;24.60;15.60;;;;;;;9.20;86.68;100182.34;5136962;27;20329;-76
2022/02/23 08:11:46;;;;;;;26.92;15.15;;;;;;;9.28;86.66;100190.38;5134593;27;20035;-77
2022/02/23 08:14:12;;;;;;;30.95;15.88;;;;;;;8.92;86.07;100129.44;5135725;27;20031;-77
2022/02/23 08:19:35;;;;;;;27.13;14.75;;;;;;;9.32;86.18;100189.13;5136467;27;20072;-76
2022/02/23 08:22:07;;;;;;;27.95;16.80;;;;;;;9.55;86.43;100181.72;5137100;27;20160;-76
2022/02/23 08:24:35;;;;;;;24.38;15.60;;;;;;;9.23;86.35;100153.00;5134251;27;20104;-76
2022/02/23 08:27:02;;;;;;;27.42;17.30;;;;;;;9.50;86.23;100190.06;5133044;27;20054;-76
2022/02/23 08:29:28;;;;;;;28.23;17.60;;;;;;;9.46;85.89;100164.91;5136560;27;20221;-76
2022/02/23 08:31:54;;;;;;;27.17;17.08;;;;;;;9.76;85.69;100190.25;5135104;27;20036;-77
2022/02/23 08:34:20;;;;;;;27.38;16.52;;;;;;;9.77;85.17;100169.94;5134907;27;20340;-77
2022/02/23 08:36:47;;;;;;;28.92;16.85;;;;;;;9.92;84.23;100179.88;5136461;27;20042;-77
2022/02/23 08:39:14;;;;;;;25.40;13.68;;;;;;;9.81;83.49;100177.44;5135020;27;20042;-76
2022/02/23 08:41:39;;;;;;;23.08;14.15;;;;;;;9.86;84.06;100179.63;5135569;27;20058;-76
2022/02/23 08:44:07;;;;;;;21.98;14.45;;;;;;;9.85;84.15;100178.78;5136516;27;20351;-77
2022/02/23 08:46:37;;;;;;;27.02;15.85;;;;;;;10.01;83.32;100180.81;5135890;27;20454;-77
2022/02/23 08:49:04;;;;;;;24.58;14.75;;;;;;;10.04;82.40;100180.50;5134222;27;20039;-76
2022/02/23 08:51:30;;;;;;;25.98;14.43;;;;;;;10.04;83.07;100177.84;5134860;27;20065;-76
2022/02/23 08:53:55;;;;;;;26.10;15.48;;;;;;;10.01;83.24;100180.81;5136284;28;20031;-76
2022/02/23 08:56:21;;;;;;;27.33;15.68;;;;;;;10.03;81.97;100172.72;5134627;27;20072;-76
2022/02/23 08:58:46;;;;;;;24.05;13.73;;;;;;;9.99;81.46;100168.69;5136866;28;20244;-76
2022/02/23 09:01:12;;;;;;;21.88;14.35;;;;;;;10.05;83.00;100184.81;5140126;27;20031;-76
2022/02/23 09:03:37;;;;;;;22.02;14.02;;;;;;;10.03;82.00;100191.22;5140453;28;20035;-76
2022/02/23 09:06:03;;;;;;;23.00;13.65;;;;;;;9.99;82.70;100187.22;5141091;27;20232;-76
2022/02/23 09:08:28;;;;;;;24.75;15.85;;;;;;;10.14;82.51;100191.03;5138978;28;20094;-76
2022/02/23 09:10:54;;;;;;;23.48;14.77;;;;;;;10.03;82.94;100172.72;5139580;28;20037;-77
2022/02/23 09:13:19;;;;;;;22.23;13.13;;;;;;;10.13;82.40;100190.19;5139542;27;20043;-76
2022/02/23 09:15:45;;;;;;;23.08;14.35;;;;;;;10.14;82.25;100191.03;5142127;27;20350;-76
2022/02/23 09:18:10;;;;;;;21.25;13.13;;;;;;;10.13;81.02;100176.97;5139434;27;20031;-76
2022/02/23 09:20:36;;;;;;;23.90;15.05;;;;;;;10.39;81.16;100192.16;5140019;27;20160;-76
2022/02/23 09:23:01;;;;;;;24.33;14.07;;;;;;;10.48;80.28;100191.28;5143729;27;20030;-76
2022/02/23 09:25:27;;;;;;;24.42;15.30;;;;;;;10.66;80.40;100194.78;5144852;27;20099;-76
2022/02/23 09:27:53;;;;;;;24.00;12.82;;;;;;;10.67;79.63;100193.78;5143927;27;20035;-76
2022/02/23 09:30:19;;;;;;;21.83;13.50;;;;;;;10.40;80.64;100196.47;5145612;27;20035;-76
2022/02/23 09:32:47;;;;;;;22.13;13.23;;;;;;;10.24;80.03;100197.13;5143688;27;20255;-77
2022/02/23 09:35:12;;;;;;;21.27;12.40;;;;;;;10.49;81.43;100196.44;5143135;27;20098;-77
2022/02/23 09:37:38;;;;;;;23.88;12.60;;;;;;;10.27;79.86;100191.53;5142993;27;20034;-74
2022/02/23 09:40:05;;;;;;;21.25;12.38;;;;;;;10.29;80.15;100194.03;5143218;27;20045;-73
2022/02/23 09:42:31;;;;;;;24.65;12.68;;;;;;;10.64;80.15;100194.09;5144649;27;20042;-74
2022/02/23 09:45:01;;;;;;;21.67;12.70;;;;;;;10.65;79.51;100195.75;5143768;27;20043;-74
2022/02/23 09:47:32;;;;;;;22.23;13.45;;;;;;;10.76;80.10;100194.69;5145824;27;20102;-74
2022/02/23 09:49:58;;;;;;;18.77;12.02;;;;;;;10.68;78.89;100192.81;5143873;27;20083;-73
2022/02/23 09:52:24;;;;;;;19.65;13.05;;;;;;;10.70;79.58;100176.75;5143194;27;20042;-74
2022/02/23 09:54:58;;;;;;;21.27;13.77;;;;;;;10.91;78.61;100189.69;5143181;27;20266;-74
2022/02/23 09:57:24;;;;;;;21.30;12.85;;;;;;;10.93;79.83;100172.66;5141672;27;20076;-74
2022/02/23 09:59:49;;;;;;;19.05;12.23;;;;;;;11.38;78.72;100190.19;5144484;27;20058;-74
2022/02/23 10:02:15;;;;;;;17.35;10.80;;;;;;;11.45;76.49;100188.59;5143356;27;20324;-76
2022/02/23 10:04:41;;;;;;;19.67;11.30;;;;;;;11.46;76.55;100193.75;5144703;27;20038;-73
2022/02/23 10:07:08;;;;;;;16.70;10.50;;;;;;;11.47;76.06;100190.13;5143389;27;20027;-74
2022/02/23 10:09:41;;;;;;;15.85;10.32;;;;;;;11.60;75.44;100188.84;5143930;27;20027;-74
2022/02/23 10:12:07;;;;;;;20.25;10.93;;;;;;;11.93;75.53;100182.75;5141232;27;20046;-76
2022/02/23 10:14:32;;;;;;;20.60;12.43;;;;;;;11.80;75.24;100187.66;5138988;27;20317;-77
2022/02/23 10:16:58;;;;;;;16.02;11.25;;;;;;;11.81;74.94;100191.97;5144654;27;20031;-77
2022/02/23 10:19:24;;;;;;;18.17;11.65;;;;;;;11.95;75.58;100169.31;5142038;27;20251;-77
2022/02/23 10:21:59;;;;;;;17.58;11.70;;;;;;;12.10;75.38;100176.50;5143740;27;20026;-77
2022/02/23 10:24:38;;;;;;;20.48;11.15;;;;;;;11.92;74.02;100175.78;5144426;27;20108;-77
2022/02/23 10:27:09;;;;;;;13.85;9.73;;;;;;;12.14;74.62;100180.50;5140994;27;20035;-77
2022/02/23 10:29:46;;;;;;;15.57;9.30;;;;;;;12.21;73.37;100179.84;5144332;27;20031;-77
2022/02/23 10:32:13;;;;;;;13.50;9.05;;;;;;;12.39;72.70;100177.88;5143652;27;20027;-77
2022/02/23 10:34:45;;;;;;;14.07;9.38;;;;;;;12.08;72.13;100136.00;5141402;27;20031;-76
2022/02/23 10:37:12;;;;;;;19.92;11.43;;;;;;;12.33;71.98;100159.97;5142345;27;20035;-76
2022/02/23 10:39:43;;;;;;;17.02;11.00;;;;;;;12.24;72.48;100175.03;5140867;27;20030;-77
2022/02/23 10:42:11;;;;;;;15.68;10.02;;;;;;;12.37;72.28;100166.59;5141103;27;20317;-77
2022/02/23 10:44:45;;;;;;;15.25;9.30;;;;;;;12.42;72.34;100172.25;5140681;27;20034;-77
2022/02/23 10:47:33;;;;;;;;;;;;;;;12.38;71.60;100165.59;5143016;27;20281;-76
2022/02/23 10:50:02;;;;;;;15.05;10.00;;;;;;;12.17;71.62;100170.53;5141732;27;19915;-77
2022/02/23 10:52:32;;;;;;;15.00;9.50;;;;;;;12.18;71.21;100146.47;5143826;27;20050;-77
2022/02/23 10:55:30;;;;;;;16.15;9.68;;;;;;;12.47;70.94;100165.47;5142893;27;20373;-76
2022/02/23 10:57:59;;;;;;;16.40;9.55;;;;;;;12.39;71.24;100161.97;5097391;27;20058;-76
2022/02/23 11:00:39;;;;;;;15.65;11.07;;;;;;;12.37;71.74;100156.81;5141754;27;20026;-76
2022/02/23 11:03:05;;;;;;;14.15;9.20;;;;;;;12.46;71.24;100155.81;5141868;27;20046;-76
2022/02/23 11:05:32;;;;;;;11.40;8.52;;;;;;;12.50;69.92;100152.88;5142548;27;20065;-76
2022/02/23 11:08:01;;;;;;;13.98;8.20;;;;;;;12.23;70.22;100133.56;5141636;27;20019;-76
2022/02/23 11:10:27;;;;;;;16.75;7.60;;;;;;;12.31;70.46;100130.06;5141707;27;20400;-76
2022/02/23 11:12:57;;;;;;;14.77;8.55;;;;;;;12.25;70.35;100150.16;5143636;27;20068;-76
2022/02/23 11:15:25;;;;;;;12.63;8.40;;;;;;;12.34;70.88;100146.50;5144195;27;20080;-77
2022/02/23 11:17:53;;;;;;;11.02;7.60;;;;;;;12.51;68.53;100154.53;5143356;27;20072;-77
2022/02/23 11:20:21;;;;;;;11.55;8.20;;;;;;;12.48;69.31;100147.69;5141889;27;20035;-77
2022/02/23 11:22:54;;;;;;;10.73;7.30;;;;;;;12.31;69.19;100152.16;5142252;27;20086;-76
2022/02/23 11:25:20;;;;;;;15.23;9.50;;;;;;;12.09;70.81;100105.00;5142206;27;20046;-76